Time;durP1;ratioP1;P1;durP2;ratioP2;P2;SDS_P1;SDS_P2;PMS_P1;PMS_P2;Temp;Humidity;BMP_temperature;BMP_pressure;BME280_temperature;BME280_humidity;BME280_pressure;Samples;Min_cycle;Max_cycle;Signal;HPM_P1;HPM_P2
2023/05/21 00:01:09;;;;;;;12.23;7.65;;;;;;;19.69;54.42;101951.66;4961265;28;20042;-38
2023/05/21 00:03:40;;;;;;;10.57;7.72;;;;;;;19.70;54.59;101948.88;4984829;28;20057;-39
2023/05/21 00:06:06;;;;;;;10.57;7.83;;;;;;;19.69;54.42;101944.50;4979289;28;20570;-40
2023/05/21 00:08:33;;;;;;;10.88;7.78;;;;;;;19.68;54.68;101940.13;4962303;28;20061;-41
2023/05/21 00:11:01;;;;;;;14.02;7.57;;;;;;;19.71;54.63;101941.69;4981666;28;20080;-39
2023/05/21 00:13:29;;;;;;;11.82;7.72;;;;;;;19.70;54.49;101943.53;4968874;28;20096;-38
2023/05/21 00:15:54;;;;;;;15.40;9.73;;;;;;;19.71;54.83;101939.91;4978557;28;20116;-39
2023/05/21 00:18:21;;;;;;;13.32;8.57;;;;;;;19.70;54.64;101938.19;4970445;28;20034;-38
2023/05/21 00:20:46;;;;;;;12.68;8.43;;;;;;;19.71;54.69;101934.56;4985979;28;20416;-40
2023/05/21 00:23:17;;;;;;;13.52;7.28;;;;;;;19.71;54.95;101939.03;4961718;28;20026;-42
2023/05/21 00:25:46;;;;;;;11.98;8.57;;;;;;;19.70;54.74;101938.19;4981270;28;20031;-39
2023/05/21 00:28:12;;;;;;;13.68;8.15;;;;;;;19.70;55.10;101930.19;4983632;28;20338;-39
2023/05/21 00:30:38;;;;;;;13.95;8.65;;;;;;;19.71;55.20;101928.34;4947905;28;21321;-39
2023/05/21 00:33:04;;;;;;;12.35;8.57;;;;;;;19.70;55.22;101923.97;4967989;28;20069;-38
2023/05/21 00:35:29;;;;;;;12.85;8.10;;;;;;;19.71;55.00;101934.56;4948067;28;21738;-38
2023/05/21 00:37:55;;;;;;;18.60;8.55;;;;;;;19.72;55.06;101927.38;4982867;28;20065;-40
2023/05/21 00:40:21;;;;;;;14.13;8.43;;;;;;;19.72;55.06;101925.59;4978381;28;20026;-38
2023/05/21 00:42:46;;;;;;;12.90;8.27;;;;;;;19.71;55.33;101929.22;4983957;28;20481;-39
2023/05/21 00:45:13;;;;;;;11.45;8.30;;;;;;;19.67;55.30;101927.75;4978088;28;20042;-44
2023/05/21 00:47:40;;;;;;;11.95;8.43;;;;;;;19.68;55.26;101918.78;4973644;28;20686;-38
2023/05/21 00:50:07;;;;;;;15.27;8.43;;;;;;;19.70;55.46;101914.16;4958271;28;20049;-41
2023/05/21 00:52:40;;;;;;;13.07;7.97;;;;;;;19.68;55.55;101918.78;4983718;28;21371;-39
2023/05/21 00:55:06;;;;;;;15.40;8.90;;;;;;;19.67;55.33;101919.75;4985533;28;20085;-39
2023/05/21 00:57:33;;;;;;;12.63;7.68;;;;;;;19.67;55.50;101918.88;4980783;28;20117;-43
2023/05/21 00:59:58;;;;;;;14.18;8.15;;;;;;;19.63;55.37;101915.59;4974139;28;20038;-39
2023/05/21 01:02:24;;;;;;;14.18;8.55;;;;;;;19.63;55.54;101911.13;4980163;28;21100;-39
2023/05/21 01:04:54;;;;;;;15.25;8.85;;;;;;;19.62;55.50;101913.91;4980564;28;20113;-39
2023/05/21 01:07:25;;;;;;;12.45;8.40;;;;;;;19.59;55.53;101914.13;4983823;28;20026;-38
2023/05/21 01:09:51;;;;;;;14.20;8.23;;;;;;;19.57;55.84;101921.44;4979880;28;20046;-39
2023/05/21 01:12:18;;;;;;;11.10;8.10;;;;;;;19.57;55.86;101916.94;4978540;28;20403;-42
2023/05/21 01:14:44;;;;;;;17.52;9.30;;;;;;;19.55;55.86;101912.69;4979151;28;20451;-38
2023/05/21 01:17:11;;;;;;;12.35;8.90;;;;;;;19.54;55.78;101911.81;4981008;28;20038;-39
2023/05/21 01:19:37;;;;;;;10.23;7.93;;;;;;;19.54;55.86;101916.31;4983747;28;20126;-39
2023/05/21 01:22:07;;;;;;;17.10;9.73;;;;;;;19.53;55.94;101914.63;4981933;28;20038;-40
2023/05/21 01:24:33;;;;;;;13.40;8.75;;;;;;;19.47;56.18;101921.28;4981499;28;20121;-40
2023/05/21 01:27:00;;;;;;;13.93;8.63;;;;;;;19.44;56.13;101911.69;4965763;28;20520;-39
2023/05/21 01:29:25;;;;;;;15.70;8.68;;;;;;;19.42;56.07;101913.66;4977139;28;20034;-39
2023/05/21 01:32:09;;;;;;;15.77;8.48;;;;;;;19.41;56.21;101911.06;4958069;28;20041;-39
2023/05/21 01:35:08;;;;;;;11.75;7.90;;;;;;;19.40;56.38;101915.56;4975539;28;20034;-39
2023/05/21 01:37:54;;;;;;;14.90;8.23;;;;;;;19.38;56.28;101912.16;4982131;28;20493;-38
2023/05/21 01:40:28;;;;;;;15.75;8.52;;;;;;;19.34;56.39;101905.38;4982779;28;20053;-39
2023/05/21 01:42:53;;;;;;;12.23;7.85;;;;;;;19.33;56.47;101912.53;4972862;28;20034;-39
2023/05/21 01:45:22;;;;;;;14.88;8.27;;;;;;;19.31;56.60;101917.13;4945792;28;20037;-41
2023/05/21 01:47:50;;;;;;;16.55;8.30;;;;;;;19.30;56.55;101909.22;4979015;28;20030;-39
2023/05/21 01:50:17;;;;;;;17.25;8.25;;;;;;;19.29;56.36;101902.19;4964822;28;20023;-39
2023/05/21 01:52:52;;;;;;;13.85;8.20;;;;;;;19.27;56.72;101909.47;4976500;28;20754;-39
2023/05/21 01:55:23;;;;;;;14.95;9.20;;;;;;;19.23;56.59;101903.50;4978480;28;20069;-41
2023/05/21 01:57:55;;;;;;;14.10;7.93;;;;;;;19.24;56.62;101904.38;4980167;28;20050;-38
2023/05/21 02:00:22;;;;;;;12.40;8.77;;;;;;;19.23;56.64;101898.16;4978834;28;20485;-38
2023/05/21 02:02:48;;;;;;;12.15;8.23;;;;;;;19.22;56.82;101901.81;4984133;28;20022;-40
2023/05/21 02:05:14;;;;;;;14.95;8.82;;;;;;;19.20;56.86;101898.44;4977041;28;20388;-41
2023/05/21 02:07:40;;;;;;;12.75;8.80;;;;;;;19.16;56.90;101903.13;4981609;28;20522;-38
2023/05/21 02:10:06;;;;;;;12.45;8.35;;;;;;;19.15;57.08;101900.59;4986381;28;20026;-39
2023/05/21 02:12:32;;;;;;;12.75;8.70;;;;;;;19.10;57.07;101890.28;4983170;28;20040;-38
2023/05/21 02:14:57;;;;;;;12.73;8.60;;;;;;;19.08;57.07;101886.88;4980521;28;20022;-38
2023/05/21 02:17:29;;;;;;;14.82;9.10;;;;;;;19.07;57.02;101890.50;4971548;28;20100;-38
2023/05/21 02:19:54;;;;;;;;;;;;;;;19.07;57.38;101890.50;4963397;28;21515;-39
2023/05/21 02:22:22;;;;;;;13.97;8.57;;;;;;;19.06;56.84;101886.13;4968483;28;19918;-40
2023/05/21 02:24:47;;;;;;;13.45;8.48;;;;;;;19.02;56.80;101885.53;4960641;28;20768;-39
2023/05/21 02:27:16;;;;;;;16.83;9.18;;;;;;;19.02;56.93;101887.31;4979706;28;20493;-39
2023/05/21 02:29:41;;;;;;;15.35;9.00;;;;;;;19.01;57.16;101882.94;4982240;28;20035;-39
2023/05/21 02:32:07;;;;;;;14.90;8.02;;;;;;;19.00;57.22;101881.25;4965328;28;20084;-38
2023/05/21 02:34:35;;;;;;;15.20;8.63;;;;;;;18.98;57.22;101885.88;4966021;28;20042;-41
2023/05/21 02:37:00;;;;;;;13.15;8.43;;;;;;;18.95;57.36;101889.59;4971345;28;20030;-39
2023/05/21 02:39:26;;;;;;;12.57;8.18;;;;;;;18.90;57.26;101886.41;4967049;28;20053;-38
2023/05/21 02:41:51;;;;;;;11.35;8.38;;;;;;;18.88;57.36;101885.69;4979858;28;20201;-39
2023/05/21 02:44:18;;;;;;;18.08;8.52;;;;;;;18.85;57.43;101891.22;4965352;28;20045;-40
2023/05/21 02:46:43;;;;;;;18.17;8.75;;;;;;;18.85;57.61;101885.91;4980835;28;20042;-41
2023/05/21 02:49:09;;;;;;;13.73;8.75;;;;;;;18.86;57.64;101883.09;4967720;28;20038;-40
2023/05/21 02:51:34;;;;;;;12.98;8.13;;;;;;;18.82;57.74;101887.00;4970498;28;20429;-39
2023/05/21 02:54:00;;;;;;;14.20;8.95;;;;;;;18.80;57.63;101886.25;4969813;28;20025;-39
2023/05/21 02:56:25;;;;;;;12.35;8.48;;;;;;;18.76;57.71;101882.09;4972822;28;20109;-39
2023/05/21 02:58:51;;;;;;;18.80;8.02;;;;;;;18.74;57.82;101876.91;4964372;28;20030;-39
2023/05/21 03:01:16;;;;;;;12.65;8.15;;;;;;;18.71;58.04;101887.78;4982734;28;20026;-38
2023/05/21 03:03:42;;;;;;;13.05;9.10;;;;;;;18.70;58.07;101880.75;4958056;28;20512;-38
2023/05/21 03:06:08;;;;;;;17.05;9.98;;;;;;;18.69;57.96;101883.50;4953600;28;20030;-41
2023/05/21 03:08:37;;;;;;;13.23;9.18;;;;;;;18.67;58.11;101880.97;4985950;28;20129;-38
2023/05/21 03:11:03;;;;;;;14.05;9.30;;;;;;;18.68;58.09;101888.00;4980711;28;20074;-39
2023/05/21 03:13:29;;;;;;;16.00;8.75;;;;;;;18.64;58.30;101886.53;4967315;28;20041;-39
2023/05/21 03:15:55;;;;;;;13.90;8.40;;;;;;;18.65;58.17;101882.91;4973625;28;20039;-44
2023/05/21 03:18:21;;;;;;;15.07;8.93;;;;;;;18.66;58.20;101878.44;4979345;28;20117;-39
2023/05/21 03:20:47;;;;;;;14.77;9.80;;;;;;;18.64;58.19;101877.69;4968184;28;20533;-39
2023/05/21 03:23:13;;;;;;;13.52;8.50;;;;;;;18.59;58.43;101886.03;4969426;28;20084;-39
2023/05/21 03:25:39;;;;;;;17.67;9.00;;;;;;;18.57;58.29;101883.47;4980216;28;20045;-39
2023/05/21 03:28:05;;;;;;;18.02;9.65;;;;;;;18.54;58.47;101882.84;4984122;28;20030;-40
2023/05/21 03:30:31;;;;;;;18.65;9.75;;;;;;;18.53;58.63;101884.66;4977113;28;20042;-39
2023/05/21 03:32:59;;;;;;;16.95;9.68;;;;;;;18.54;58.51;101874.84;4981690;28;20034;-40
2023/05/21 03:35:24;;;;;;;15.10;9.38;;;;;;;18.52;58.52;101874.13;4984636;28;20042;-39
2023/05/21 03:37:50;;;;;;;14.88;9.60;;;;;;;18.52;58.84;101874.13;4966144;28;20065;-38
2023/05/21 03:40:15;;;;;;;14.88;9.00;;;;;;;18.54;58.52;101875.69;4983107;28;20449;-39
2023/05/21 03:42:41;;;;;;;15.23;8.98;;;;;;;18.56;58.64;101879.09;4963283;28;20075;-39
2023/05/21 03:45:07;;;;;;;15.45;8.88;;;;;;;18.51;58.69;101875.94;4978974;28;20066;-39
2023/05/21 03:47:34;;;;;;;13.73;9.40;;;;;;;18.53;58.59;101871.31;4984117;28;20084;-41
2023/05/21 03:50:00;;;;;;;12.05;8.48;;;;;;;18.54;58.91;101878.34;4981653;28;20058;-39
2023/05/21 03:52:25;;;;;;;16.33;9.07;;;;;;;18.58;58.79;101869.19;4964074;28;20708;-39
2023/05/21 03:54:51;;;;;;;18.60;9.90;;;;;;;18.59;58.67;101872.72;4979845;28;20030;-40
2023/05/21 03:57:16;;;;;;;17.55;9.48;;;;;;;18.57;58.72;101872.81;4981370;28;20042;-38
2023/05/21 03:59:42;;;;;;;19.55;9.80;;;;;;;18.55;58.89;101873.88;4980572;28;20035;-38
2023/05/21 04:02:09;;;;;;;11.65;8.88;;;;;;;18.55;58.99;101872.06;4964017;28;20133;-39
2023/05/21 04:04:35;;;;;;;14.00;8.60;;;;;;;18.58;58.67;101871.84;4977493;28;20122;-38
2023/05/21 04:07:03;;;;;;;14.15;8.95;;;;;;;18.62;58.77;101877.78;4968515;28;20038;-38
2023/05/21 04:09:29;;;;;;;16.27;9.60;;;;;;;18.63;58.89;101876.81;4978299;28;20033;-38
2023/05/21 04:11:54;;;;;;;15.13;8.93;;;;;;;18.64;58.76;101875.88;4975572;28;20039;-39
2023/05/21 04:14:21;;;;;;;14.93;9.73;;;;;;;18.66;59.11;101875.78;4984873;28;20026;-39
2023/05/21 04:16:47;;;;;;;18.17;10.02;;;;;;;18.68;58.99;101876.50;4983299;28;20117;-38
2023/05/21 04:19:13;;;;;;;15.93;10.32;;;;;;;18.69;58.82;101884.38;4980523;28;20080;-38
2023/05/21 04:21:39;;;;;;;15.07;9.85;;;;;;;18.72;58.88;101880.63;4984583;28;20034;-39
2023/05/21 04:24:04;;;;;;;15.00;10.18;;;;;;;18.74;59.01;101882.22;4967570;28;20038;-39
2023/05/21 04:26:32;;;;;;;19.48;11.05;;;;;;;18.77;59.16;101886.47;4979277;28;20042;-38
2023/05/21 04:28:58;;;;;;;15.07;9.88;;;;;;;18.78;59.15;101880.19;4983122;28;20046;-38
2023/05/21 04:31:23;;;;;;;14.38;10.75;;;;;;;18.79;58.92;101876.56;4986187;28;20026;-38
2023/05/21 04:33:49;;;;;;;17.23;10.50;;;;;;;18.79;59.10;101887.22;4986434;28;20105;-38
2023/05/21 04:36:16;;;;;;;15.50;11.00;;;;;;;18.82;59.29;101875.47;4981328;28;20421;-39
2023/05/21 04:38:41;;;;;;;15.23;9.77;;;;;;;18.86;59.31;101885.78;4981690;28;20074;-38
2023/05/21 04:41:09;;;;;;;18.80;10.02;;;;;;;18.88;59.29;101888.34;4983094;28;20457;-39
2023/05/21 04:43:35;;;;;;;16.45;10.05;;;;;;;18.90;59.58;101891.75;4976735;28;20520;-40
2023/05/21 04:46:01;;;;;;;18.50;9.32;;;;;;;18.93;59.50;101882.66;4982722;28;20042;-40
2023/05/21 04:48:27;;;;;;;20.75;11.05;;;;;;;18.95;59.70;101888.78;4983392;28;20551;-38
2023/05/21 04:50:54;;;;;;;18.75;10.77;;;;;;;18.99;59.72;101879.53;4984688;28;20045;-38
2023/05/21 04:53:22;;;;;;;16.27;10.55;;;;;;;19.04;59.56;101886.25;4986230;28;21157;-39
2023/05/21 04:55:50;;;;;;;22.60;13.00;;;;;;;19.07;59.54;101884.28;4984754;28;20049;-39
2023/05/21 04:58:18;;;;;;;18.75;12.00;;;;;;;19.09;59.86;101888.56;4967387;28;20382;-39
2023/05/21 05:00:49;;;;;;;20.38;11.80;;;;;;;19.15;59.94;101884.59;4975736;28;20053;-39
2023/05/21 05:03:15;;;;;;;18.83;11.07;;;;;;;19.17;59.99;101890.66;4965415;28;20038;-39
2023/05/21 05:05:40;;;;;;;23.75;11.68;;;;;;;19.18;59.84;101890.53;4967442;28;20053;-39
2023/05/21 05:08:06;;;;;;;18.75;11.95;;;;;;;19.24;59.93;101891.88;4980962;28;20421;-39
2023/05/21 05:10:31;;;;;;;19.73;11.30;;;;;;;19.27;60.21;101888.97;4982524;28;20030;-41
2023/05/21 05:12:57;;;;;;;21.55;11.45;;;;;;;19.30;60.07;101895.88;4956743;28;20040;-39
2023/05/21 05:15:22;;;;;;;16.40;11.10;;;;;;;19.33;59.84;101893.84;4962484;28;20041;-39
2023/05/21 05:17:49;;;;;;;18.27;12.15;;;;;;;19.38;60.09;101895.28;4984476;28;20033;-41
2023/05/21 05:20:15;;;;;;;20.17;12.07;;;;;;;19.42;60.11;101896.75;4966046;28;20025;-39
2023/05/21 05:22:40;;;;;;;19.05;12.10;;;;;;;19.44;59.87;101890.31;4975631;28;20038;-40
2023/05/21 05:25:06;;;;;;;18.08;11.57;;;;;;;19.48;59.99;101894.47;4973910;28;20088;-39
2023/05/21 05:27:35;;;;;;;16.50;12.07;;;;;;;19.53;60.34;101888.75;4965879;28;20072;-42
2023/05/21 05:30:02;;;;;;;17.98;11.98;;;;;;;19.55;60.09;101892.16;4969122;28;20038;-40
2023/05/21 05:32:28;;;;;;;18.00;12.15;;;;;;;19.60;60.17;101900.69;4982027;28;20100;-38
2023/05/21 05:34:53;;;;;;;16.95;12.38;;;;;;;19.61;60.38;101896.19;4979487;28;20084;-39
2023/05/21 05:37:19;;;;;;;38.53;23.80;;;;;;;19.63;60.23;101891.56;4974386;28;20076;-39
2023/05/21 05:39:44;;;;;;;30.05;17.05;;;;;;;19.66;60.12;101894.00;4970874;28;20056;-39
2023/05/21 05:42:10;;;;;;;16.10;12.63;;;;;;;19.68;60.08;101889.41;4974613;28;20042;-39
2023/05/21 05:44:35;;;;;;;18.25;13.60;;;;;;;19.70;60.41;101900.81;4972906;28;20176;-39
2023/05/21 05:47:00;;;;;;;18.77;12.73;;;;;;;19.73;60.18;101895.25;4983558;28;20040;-39
2023/05/21 05:49:26;;;;;;;22.30;13.25;;;;;;;19.76;60.36;101894.97;4985805;28;20054;-38
2023/05/21 05:51:51;;;;;;;19.70;14.38;;;;;;;19.78;60.39;101898.38;4954891;28;20489;-39
2023/05/21 05:54:18;;;;;;;17.48;12.77;;;;;;;19.80;60.38;101885.75;4957351;28;20026;-41
2023/05/21 05:56:43;;;;;;;22.80;13.82;;;;;;;19.83;60.23;101883.81;4979762;28;20363;-39
2023/05/21 05:59:09;;;;;;;21.10;13.88;;;;;;;19.85;60.31;101889.91;4970466;28;20042;-40
2023/05/21 06:01:34;;;;;;;20.38;13.93;;;;;;;19.88;59.98;101887.03;4945080;28;20030;-39
2023/05/21 06:04:00;;;;;;;18.48;13.40;;;;;;;19.91;59.98;101887.63;4938199;28;20026;-41
2023/05/21 06:06:25;;;;;;;19.67;13.98;;;;;;;19.95;60.22;101881.06;4960462;28;20397;-40
2023/05/21 06:08:51;;;;;;;22.23;12.55;;;;;;;20.00;60.09;101880.69;4973885;28;20046;-39
2023/05/21 06:11:17;;;;;;;21.95;13.38;;;;;;;20.02;59.83;101873.41;4962760;28;20042;-38
2023/05/21 06:13:43;;;;;;;16.98;12.88;;;;;;;20.08;60.03;101872.91;4976435;28;20114;-43
2023/05/21 06:16:09;;;;;;;17.17;12.13;;;;;;;20.12;59.83;101867.31;4977064;28;22030;-38
2023/05/21 06:18:34;;;;;;;21.08;13.50;;;;;;;20.14;59.76;101871.56;4983294;28;20034;-38
2023/05/21 06:21:00;;;;;;;20.42;13.45;;;;;;;20.19;60.07;101873.88;4959402;28;20037;-39
2023/05/21 06:23:25;;;;;;;21.00;13.98;;;;;;;20.22;59.84;101865.59;4968554;28;20034;-39
2023/05/21 06:25:51;;;;;;;22.30;15.25;;;;;;;20.25;59.81;101871.56;4983170;28;20531;-40
2023/05/21 06:28:16;;;;;;;20.75;14.88;;;;;;;20.27;60.06;101868.75;4956577;28;20031;-39
2023/05/21 06:30:42;;;;;;;22.45;14.00;;;;;;;20.30;59.88;101870.31;4975281;28;20124;-39
2023/05/21 06:33:07;;;;;;;27.73;15.65;;;;;;;20.35;59.81;101868.94;4973683;28;20528;-42
2023/05/21 06:35:35;;;;;;;23.77;13.38;;;;;;;20.39;59.79;101867.72;4978415;28;20022;-39
2023/05/21 06:38:01;;;;;;;24.58;13.70;;;;;;;20.43;59.92;101865.66;4982032;28;20026;-38
2023/05/21 06:40:27;;;;;;;20.27;13.63;;;;;;;20.49;59.79;101864.31;4977238;28;20022;-38
2023/05/21 06:42:52;;;;;;;21.40;13.75;;;;;;;20.55;59.54;101869.16;4965952;28;20032;-39
2023/05/21 06:45:18;;;;;;;20.80;12.80;;;;;;;20.59;59.84;101867.06;4970315;28;20041;-38
2023/05/21 06:47:43;;;;;;;15.93;12.13;;;;;;;20.63;59.52;101874.72;4974074;28;20557;-42
2023/05/21 06:50:09;;;;;;;22.20;13.40;;;;;;;20.66;59.17;101871.78;4979388;28;20081;-40
2023/05/21 06:52:34;;;;;;;18.17;13.25;;;;;;;20.71;59.43;101868.75;4979271;28;20075;-40
2023/05/21 06:55:00;;;;;;;19.10;12.88;;;;;;;20.75;59.72;101872.88;4944376;28;20053;-39
2023/05/21 06:57:25;;;;;;;20.42;12.43;;;;;;;20.79;59.19;101873.47;4971637;28;20031;-39
2023/05/21 06:59:50;;;;;;;17.90;12.57;;;;;;;20.82;59.22;101865.16;4982538;28;20143;-38
2023/05/21 07:02:19;;;;;;;23.55;14.25;;;;;;;20.86;58.91;101867.47;4968875;28;20068;-38
2023/05/21 07:04:47;;;;;;;19.92;12.48;;;;;;;20.90;59.21;101865.41;4974001;28;20084;-39
2023/05/21 07:07:12;;;;;;;19.00;13.38;;;;;;;20.95;58.95;101871.19;4969000;28;20472;-39
2023/05/21 07:09:40;;;;;;;23.17;13.25;;;;;;;20.99;58.82;101872.63;4974014;28;20030;-39
2023/05/21 07:12:05;;;;;;;17.90;12.77;;;;;;;21.03;58.62;101865.19;4970849;28;20145;-39
2023/05/21 07:14:36;;;;;;;15.90;11.20;;;;;;;21.09;58.60;101866.53;4982587;28;20121;-40
2023/05/21 07:17:04;;;;;;;16.17;12.10;;;;;;;21.11;58.74;101860.03;4974614;28;20045;-40
2023/05/21 07:19:29;;;;;;;18.35;13.05;;;;;;;21.15;58.72;101857.94;4981457;28;20113;-40
2023/05/21 07:22:01;;;;;;;18.92;12.10;;;;;;;21.20;58.35;101865.56;4980486;28;20095;-39
2023/05/21 07:24:31;;;;;;;16.20;12.23;;;;;;;21.25;58.27;101866.03;4976222;28;20044;-43
2023/05/21 07:26:59;;;;;;;17.10;12.60;;;;;;;21.28;58.08;101863.13;4987509;28;20039;-41
2023/05/21 07:29:27;;;;;;;18.98;13.82;;;;;;;21.33;57.96;101868.91;4962302;28;20065;-41
2023/05/21 07:31:55;;;;;;;17.00;11.75;;;;;;;21.40;57.98;101877.28;4980551;28;20047;-40
2023/05/21 07:34:20;;;;;;;23.17;16.30;;;;;;;21.44;57.73;101868.84;4984508;28;20050;-40
2023/05/21 07:36:46;;;;;;;18.23;13.63;;;;;;;21.47;57.51;101870.38;4980610;28;20032;-42
2023/05/21 07:39:11;;;;;;;16.88;11.35;;;;;;;21.52;57.68;101854.78;4963722;28;20046;-41
2023/05/21 07:41:36;;;;;;;16.77;12.02;;;;;;;21.58;57.40;101856.91;4977307;28;20018;-41
2023/05/21 07:44:02;;;;;;;16.35;10.45;;;;;;;21.64;57.52;101860.06;4969724;28;20485;-40
2023/05/21 07:46:27;;;;;;;15.85;10.68;;;;;;;21.71;57.10;101863.91;4957322;28;20062;-42
2023/05/21 07:48:53;;;;;;;17.58;11.25;;;;;;;21.77;56.94;101860.69;4963667;28;20088;-38
2023/05/21 07:51:20;;;;;;;16.67;10.23;;;;;;;21.86;56.58;101862.53;4956888;28;20037;-41
2023/05/21 07:53:45;;;;;;;14.23;10.63;;;;;;;21.92;56.66;101853.97;4978103;28;20117;-42
2023/05/21 07:56:11;;;;;;;17.23;10.73;;;;;;;22.00;56.40;101863.19;4966176;28;20113;-39
2023/05/21 07:58:36;;;;;;;19.90;11.80;;;;;;;22.05;55.98;101863.59;4959608;28;20038;-38
2023/05/21 08:01:02;;;;;;;14.82;11.07;;;;;;;22.11;55.88;101854.16;4979600;28;20069;-40
2023/05/21 08:03:29;;;;;;;17.08;11.07;;;;;;;22.17;55.62;101859.81;4953814;28;20476;-41
2023/05/21 08:05:55;;;;;;;16.13;9.07;;;;;;;22.21;55.76;101861.25;4970765;28;20072;-39
2023/05/21 08:08:22;;;;;;;12.15;9.45;;;;;;;22.28;55.39;101860.69;4975233;28;20037;-39
2023/05/21 08:10:47;;;;;;;15.45;10.40;;;;;;;22.31;55.39;101860.44;4965064;28;20041;-41
2023/05/21 08:13:14;;;;;;;30.77;18.88;;;;;;;22.37;55.34;101862.53;4969808;28;20034;-41
2023/05/21 08:15:40;;;;;;;19.35;12.45;;;;;;;22.41;55.18;101858.59;4975007;28;20022;-39
2023/05/21 08:18:05;;;;;;;18.10;10.98;;;;;;;22.46;55.08;101851.00;4948918;28;20041;-42
2023/05/21 08:20:32;;;;;;;12.95;9.27;;;;;;;22.55;54.85;101864.56;4971266;28;20068;-39
2023/05/21 08:22:59;;;;;;;14.00;8.55;;;;;;;22.59;54.58;101860.63;4970197;28;20065;-38
2023/05/21 08:25:25;;;;;;;15.55;8.48;;;;;;;22.63;54.32;101870.91;4976553;28;20064;-38
2023/05/21 08:27:50;;;;;;;11.98;7.75;;;;;;;22.67;54.00;101866.97;4979230;28;20057;-38
2023/05/21 08:30:16;;;;;;;12.55;8.88;;;;;;;22.72;53.66;101866.53;4968144;28;20031;-41
2023/05/21 08:32:41;;;;;;;12.80;7.40;;;;;;;22.77;53.64;101863.44;4972216;28;20417;-38
2023/05/21 08:35:07;;;;;;;11.27;7.85;;;;;;;22.80;53.28;101864.00;4973784;28;20544;-38
2023/05/21 08:37:33;;;;;;;11.15;8.23;;;;;;;22.86;53.12;101867.09;4969439;28;20041;-41
2023/05/21 08:39:58;;;;;;;13.25;8.10;;;;;;;22.89;52.98;101862.28;4959706;28;20062;-40
2023/05/21 08:42:49;;;;;;;14.35;9.32;;;;;;;22.94;52.50;101859.16;4966927;28;20046;-38
2023/05/21 08:45:22;;;;;;;10.65;7.25;;;;;;;22.99;52.36;101868.47;4967882;28;21137;-41
2023/05/21 08:47:57;;;;;;;14.88;8.57;;;;;;;23.01;52.39;101865.69;4966786;28;20038;-39
2023/05/21 08:50:26;;;;;;;12.43;7.25;;;;;;;23.02;52.45;101872.75;4962716;28;20054;-40
2023/05/21 08:52:54;;;;;;;12.32;7.53;;;;;;;23.04;52.47;101869.91;4969812;28;20053;-38
2023/05/21 08:55:21;;;;;;;12.10;8.15;;;;;;;23.04;52.40;101870.75;4968895;28;20034;-39
2023/05/21 08:57:47;;;;;;;9.50;6.95;;;;;;;23.06;52.28;101871.47;4965421;28;20058;-40
2023/05/21 09:00:13;;;;;;;14.50;8.93;;;;;;;23.09;52.39;101873.84;4950616;28;20038;-44
2023/05/21 09:02:39;;;;;;;20.90;9.60;;;;;;;23.11;52.28;101869.19;4963942;28;20132;-41
2023/05/21 09:05:08;;;;;;;12.45;8.57;;;;;;;23.14;52.35;101871.59;4972474;28;20061;-45
2023/05/21 09:07:42;;;;;;;10.75;7.15;;;;;;;23.20;51.69;101874.69;4966565;28;20093;-40
2023/05/21 09:10:11;;;;;;;13.27;8.02;;;;;;;23.21;51.63;101871.88;4964730;28;20031;-44
2023/05/21 09:12:37;;;;;;;12.10;8.05;;;;;;;23.27;51.64;101870.44;4965903;28;20516;-42
2023/05/21 09:15:03;;;;;;;16.50;8.18;;;;;;;23.34;51.53;101863.53;4967061;28;20034;-42
2023/05/21 09:17:29;;;;;;;11.88;6.95;;;;;;;23.40;51.32;101873.66;4975423;28;20038;-39
2023/05/21 09:20:16;;;;;;;9.10;6.90;;;;;;;23.47;50.32;101867.72;4955257;28;20038;-41
2023/05/21 09:22:49;;;;;;;9.93;6.53;;;;;;;23.53;50.83;101869.81;4968383;28;20109;-39
2023/05/21 09:25:17;;;;;;;9.60;6.72;;;;;;;23.57;50.84;101865.84;4967846;28;20026;-39
2023/05/21 09:27:43;;;;;;;7.40;6.40;;;;;;;23.63;50.70;101870.63;4974541;28;20034;-39
2023/05/21 09:30:13;;;;;;;11.55;6.30;;;;;;;23.70;50.14;101870.88;4972300;28;20105;-39
2023/05/21 09:32:40;;;;;;;9.48;6.70;;;;;;;23.74;50.21;101867.75;4955500;28;20174;-41
2023/05/21 09:35:13;;;;;;;8.55;6.50;;;;;;;23.81;49.27;101867.16;4975986;28;20033;-41
2023/05/21 09:37:45;;;;;;;9.43;6.25;;;;;;;23.84;49.98;101870.41;4972822;28;20046;-39
2023/05/21 09:40:11;;;;;;;;;;;;;;;23.95;49.09;101860.44;4971570;28;20109;-41
2023/05/21 09:42:47;;;;;;;13.93;8.18;;;;;;;24.00;49.32;101860.88;4975413;28;20353;-39
2023/05/21 09:45:24;;;;;;;12.38;8.60;;;;;;;24.07;48.96;101866.50;4970425;28;20039;-38
2023/05/21 09:47:52;;;;;;;12.82;7.53;;;;;;;24.09;49.31;101865.31;4966500;28;20022;-40
2023/05/21 09:50:26;;;;;;;12.65;7.43;;;;;;;24.13;49.38;101866.72;4965667;28;20038;-41
2023/05/21 09:52:54;;;;;;;13.52;6.07;;;;;;;24.16;49.02;101863.75;4968776;28;20062;-39
2023/05/21 09:55:24;;;;;;;12.85;6.40;;;;;;;24.19;49.06;101870.66;4964848;28;20061;-39
2023/05/21 09:57:50;;;;;;;12.23;7.80;;;;;;;24.18;49.15;101866.28;4962485;28;20034;-43
2023/05/21 10:00:18;;;;;;;11.90;7.32;;;;;;;24.23;49.06;101865.81;4948363;28;20030;-38
2023/05/21 10:02:48;;;;;;;14.75;7.28;;;;;;;24.26;49.30;101863.69;4964350;28;20035;-38
2023/05/21 10:05:15;;;;;;;10.23;6.60;;;;;;;24.27;49.30;101862.69;4963092;28;20034;-41
2023/05/21 10:07:44;;;;;;;12.50;6.75;;;;;;;24.35;49.10;101849.31;4946827;28;20859;-42
2023/05/21 10:10:13;;;;;;;8.93;6.72;;;;;;;24.47;48.65;101849.06;4968495;28;20042;-43
2023/05/21 10:12:46;;;;;;;11.48;6.32;;;;;;;24.55;48.42;101851.00;4966085;28;20042;-42
2023/05/21 10:15:14;;;;;;;8.43;5.85;;;;;;;24.57;48.36;101852.56;4968637;28;20077;-40
2023/05/21 10:17:42;;;;;;;10.38;6.22;;;;;;;24.68;47.80;101843.38;4959416;28;20418;-41
2023/05/21 10:20:09;;;;;;;11.50;7.03;;;;;;;24.77;47.55;101847.88;4972153;28;20638;-41
2023/05/21 10:22:36;;;;;;;11.50;7.93;;;;;;;24.90;46.95;101842.06;4975652;28;21577;-40
2023/05/21 10:25:02;;;;;;;11.85;6.47;;;;;;;24.98;46.75;101835.91;4975082;28;20042;-39
2023/05/21 10:27:29;;;;;;;12.60;7.18;;;;;;;25.05;46.68;101836.09;4960145;28;20034;-40
2023/05/21 10:29:57;;;;;;;8.40;6.55;;;;;;;25.10;46.29;101836.50;4971366;28;20035;-43
2023/05/21 10:32:26;;;;;;;11.82;7.05;;;;;;;25.18;45.87;101830.31;4974840;28;21190;-40
2023/05/21 10:34:53;;;;;;;9.50;6.82;;;;;;;25.21;45.52;101836.22;4978889;28;20142;-38
2023/05/21 10:37:25;;;;;;;10.93;6.75;;;;;;;25.24;45.22;101827.81;4970487;28;20057;-39
2023/05/21 10:39:51;;;;;;;9.13;5.93;;;;;;;25.29;44.83;101826.50;4967477;28;20026;-39
2023/05/21 10:42:22;;;;;;;7.35;5.43;;;;;;;25.37;44.08;101829.22;4973875;28;20045;-41
2023/05/21 10:45:16;;;;;;;10.55;6.47;;;;;;;25.40;43.21;101824.41;4966075;28;20799;-38
2023/05/21 10:47:56;;;;;;;8.18;5.40;;;;;;;25.45;43.86;101823.06;4971296;28;20030;-41
2023/05/21 10:50:39;;;;;;;10.70;5.70;;;;;;;25.52;43.17;101819.56;4979290;28;20026;-41
2023/05/21 10:53:23;;;;;;;13.02;5.18;;;;;;;25.53;43.62;101806.97;4973226;28;20026;-39
2023/05/21 10:56:18;;;;;;;9.63;6.07;;;;;;;25.49;43.14;101803.72;4971028;28;20162;-39
2023/05/21 10:59:20;;;;;;;7.07;5.50;;;;;;;25.52;41.39;101807.97;4965523;28;20070;-39
2023/05/21 11:01:51;;;;;;;9.35;6.60;;;;;;;25.54;42.81;101812.19;4970948;28;20121;-41
2023/05/21 11:04:21;;;;;;;12.00;6.13;;;;;;;25.67;42.14;101800.94;4974666;28;20026;-40
2023/05/21 11:06:49;;;;;;;13.02;6.10;;;;;;;25.70;42.00;101805.16;4971648;28;20037;-39
2023/05/21 11:09:15;;;;;;;10.80;6.28;;;;;;;25.82;41.81;101797.63;4966531;28;20097;-38
2023/05/21 11:11:50;;;;;;;7.60;5.60;;;;;;;25.86;41.38;101805.22;4980427;28;20452;-41
2023/05/21 11:14:26;;;;;;;9.02;6.07;;;;;;;26.00;40.57;101794.81;4967148;28;20117;-42
2023/05/21 11:16:51;;;;;;;8.45;4.65;;;;;;;26.03;41.06;101799.88;4978546;28;20126;-45
2023/05/21 11:19:17;;;;;;;7.40;5.72;;;;;;;26.09;41.20;101801.06;4981091;28;20106;-38